Wetterstation 29328 Müden/Ö

Wetterdaten: aktuell Donnerstag, 24.05.2018 19:20
Datum Zeit Temp. A. Feuchte A. Luftdruck Regen Wind Richtung Richtung Windben
24.05.2018 19:20 24,8 C 40 % 1019,2 hPa 0,0 l/m 7,7 km/h (2 Bft) O-SO 119 14,5 km/h (3 Bft)
24.05.2018 19:15 24,7 C 39 % 1019,2 hPa 0,0 l/m 9,3 km/h (2 Bft) SO 132 14,5 km/h (3 Bft)
24.05.2018 19:10 24,7 C 39 % 1019,1 hPa 0,0 l/m 9,3 km/h (2 Bft) SO 125 19,3 km/h (3 Bft)
24.05.2018 19:05 24,8 C 39 % 1019,1 hPa 0,0 l/m 6,5 km/h (2 Bft) SO 141 12,9 km/h (3 Bft)
24.05.2018 19:00 24,8 C 39 % 1019,2 hPa 0,0 l/m 7,2 km/h (2 Bft) S-SO 155 14,5 km/h (3 Bft)
24.05.2018 18:55 24,7 C 39 % 1019,2 hPa 0,0 l/m 9,5 km/h (2 Bft) SO 145 14,5 km/h (3 Bft)
24.05.2018 18:50 24,6 C 39 % 1019,2 hPa 0,0 l/m 11,1 km/h (2 Bft) SO 145 19,3 km/h (3 Bft)
24.05.2018 18:45 24,8 C 39 % 1019,2 hPa 0,0 l/m 9,2 km/h (2 Bft) S-SO 149 14,5 km/h (3 Bft)
24.05.2018 18:40 24,8 C 39 % 1019,3 hPa 0,0 l/m 7,3 km/h (2 Bft) S-SO 160 12,9 km/h (3 Bft)
24.05.2018 18:35 24,8 C 39 % 1019,3 hPa 0,0 l/m 6,0 km/h (2 Bft) SO 139 14,5 km/h (3 Bft)
24.05.2018 18:30 24,8 C 40 % 1019,3 hPa 0,0 l/m 8,3 km/h (2 Bft) SO 131 17,7 km/h (3 Bft)
24.05.2018 18:25 24,8 C 39 % 1019,3 hPa 0,0 l/m 7,6 km/h (2 Bft) O-SO 113 22,5 km/h (4 Bft)
24.05.2018 18:20 24,8 C 37 % 1019,3 hPa 0,0 l/m 7,6 km/h (2 Bft) O-SO 117 14,5 km/h (3 Bft)
24.05.2018 18:15 25,1 C 39 % 1019,3 hPa 0,0 l/m 9,7 km/h (2 Bft) SO 140 16,1 km/h (3 Bft)
24.05.2018 18:10 25,1 C 39 % 1019,3 hPa 0,0 l/m 9,6 km/h (2 Bft) SO 140 12,9 km/h (3 Bft)
24.05.2018 18:05 25,1 C 39 % 1019,3 hPa 0,0 l/m 7,8 km/h (2 Bft) SO 130 12,9 km/h (3 Bft)
24.05.2018 18:00 25,3 C 38 % 1019,3 hPa 0,0 l/m 8,1 km/h (2 Bft) O-SO 116 17,7 km/h (3 Bft)
24.05.2018 17:55 25,7 C 39 % 1019,3 hPa 0,0 l/m 11,2 km/h (2 Bft) SO 134 19,3 km/h (3 Bft)
24.05.2018 17:50 25,9 C 38 % 1019,4 hPa 0,0 l/m 9,6 km/h (2 Bft) S-SO 150 16,1 km/h (3 Bft)
24.05.2018 17:45 25,8 C 40 % 1019,4 hPa 0,0 l/m 7,2 km/h (2 Bft) O-SO 118 17,7 km/h (3 Bft)
24.05.2018 17:40 25,8 C 43 % 1019,6 hPa 0,0 l/m 6,7 km/h (2 Bft) O-SO 108 11,3 km/h (2 Bft)
24.05.2018 17:35 25,7 C 40 % 1019,6 hPa 0,0 l/m 8,8 km/h (2 Bft) SO 139 16,1 km/h (3 Bft)
24.05.2018 17:30 26,0 C 41 % 1019,5 hPa 0,0 l/m 5,5 km/h (1 Bft) SO 128 14,5 km/h (3 Bft)
24.05.2018 17:25 25,9 C 41 % 1019,5 hPa 0,0 l/m 4,5 km/h (1 Bft) O 86 11,3 km/h (2 Bft)
24.05.2018 17:20 26,2 C 39 % 1019,6 hPa 0,0 l/m 8,9 km/h (2 Bft) O 94 16,1 km/h (3 Bft)
24.05.2018 17:15 26,2 C 40 % 1019,6 hPa 0,0 l/m 3,9 km/h (1 Bft) O-SO 109 14,5 km/h (3 Bft)
24.05.2018 17:10 26,2 C 41 % 1019,6 hPa 0,0 l/m 8,4 km/h (2 Bft) SO 142 14,5 km/h (3 Bft)
24.05.2018 17:05 26,0 C 40 % 1019,7 hPa 0,0 l/m 4,6 km/h (1 Bft) SO 130 14,5 km/h (3 Bft)
24.05.2018 17:00 26,1 C 40 % 1019,7 hPa 0,0 l/m 7,0 km/h (2 Bft) SO 125 17,7 km/h (3 Bft)
24.05.2018 16:55 26,0 C 40 % 1019,8 hPa 0,0 l/m 9,4 km/h (2 Bft) O-SO 112 19,3 km/h (3 Bft)
24.05.2018 16:50 26,1 C 39 % 1019,8 hPa 0,0 l/m 5,6 km/h (1 Bft) O 91 14,5 km/h (3 Bft)
24.05.2018 16:45 26,2 C 39 % 1019,9 hPa 0,0 l/m 11,9 km/h (2 Bft) O-SO 117 25,7 km/h (4 Bft)
24.05.2018 16:40 26,2 C 41 % 1019,9 hPa 0,0 l/m 4,5 km/h (1 Bft) S-SO 157 11,3 km/h (2 Bft)
24.05.2018 16:35 26,2 C 39 % 1020,0 hPa 0,0 l/m 4,1 km/h (1 Bft) O-SO 121 11,3 km/h (2 Bft)
24.05.2018 16:30 26,2 C 40 % 1020,0 hPa 0,0 l/m 8,5 km/h (2 Bft) SO 128 16,1 km/h (3 Bft)
24.05.2018 16:25 26,1 C 39 % 1020,0 hPa 0,0 l/m 7,3 km/h (2 Bft) SO 134 16,1 km/h (3 Bft)
24.05.2018 16:20 26,1 C 41 % 1020,0 hPa 0,0 l/m 7,2 km/h (2 Bft) SO 137 16,1 km/h (3 Bft)
24.05.2018 16:15 26,3 C 39 % 1020,1 hPa 0,0 l/m 6,0 km/h (2 Bft) O-SO 122 16,1 km/h (3 Bft)
24.05.2018 16:10 26,1 C 40 % 1020,1 hPa 0,0 l/m 4,7 km/h (1 Bft) O 86 16,1 km/h (3 Bft)
24.05.2018 16:05 26,3 C 38 % 1020,2 hPa 0,0 l/m 5,9 km/h (2 Bft) O-SO 115 17,7 km/h (3 Bft)
24.05.2018 16:00 26,4 C 40 % 1020,3 hPa 0,0 l/m 7,6 km/h (2 Bft) O-SO 115 16,1 km/h (3 Bft)
24.05.2018 15:55 25,9 C 39 % 1020,4 hPa 0,0 l/m 8,9 km/h (2 Bft) O 97 16,1 km/h (3 Bft)
24.05.2018 15:50 25,9 C 37 % 1020,3 hPa 0,0 l/m 7,0 km/h (2 Bft) O-SO 120 19,3 km/h (3 Bft)
24.05.2018 15:45 26,1 C 37 % 1020,6 hPa 0,0 l/m 6,8 km/h (2 Bft) O 101 17,7 km/h (3 Bft)
24.05.2018 15:40 26,1 C 40 % 1020,6 hPa 0,0 l/m 10,0 km/h (2 Bft) O-SO 107 19,3 km/h (3 Bft)
24.05.2018 15:35 26,1 C 38 % 1020,6 hPa 0,0 l/m 8,9 km/h (2 Bft) O 88 25,7 km/h (4 Bft)
24.05.2018 15:30 26,0 C 37 % 1020,7 hPa 0,0 l/m 8,0 km/h (2 Bft) SO 129 20,9 km/h (4 Bft)
24.05.2018 15:25 25,7 C 36 % 1020,8 hPa 0,0 l/m 4,8 km/h (1 Bft) O-SO 105 12,9 km/h (3 Bft)
24.05.2018 15:20 26,1 C 33 % 1020,7 hPa 0,0 l/m 7,4 km/h (2 Bft) O-SO 110 16,1 km/h (3 Bft)
24.05.2018 15:15 26,3 C 37 % 1020,8 hPa 0,0 l/m 10,5 km/h (2 Bft) O 94 17,7 km/h (3 Bft)
24.05.2018 15:10 26,2 C 37 % 1020,8 hPa 0,0 l/m 5,2 km/h (1 Bft) SO 144 12,9 km/h (3 Bft)
24.05.2018 15:05 25,9 C 37 % 1020,9 hPa 0,0 l/m 6,5 km/h (2 Bft) O-SO 114 16,1 km/h (3 Bft)
24.05.2018 15:00 26,1 C 36 % 1020,9 hPa 0,0 l/m 11,0 km/h (2 Bft) O-SO 119 17,7 km/h (3 Bft)
24.05.2018 14:55 25,8 C 39 % 1021,0 hPa 0,0 l/m 6,6 km/h (2 Bft) S-SO 148 24,1 km/h (4 Bft)
24.05.2018 14:50 25,6 C 39 % 1021,0 hPa 0,0 l/m 7,1 km/h (2 Bft) O-SO 117 14,5 km/h (3 Bft)
24.05.2018 14:45 25,4 C 42 % 1021,0 hPa 0,0 l/m 7,5 km/h (2 Bft) SO 126 20,9 km/h (4 Bft)
24.05.2018 14:40 25,2 C 41 % 1021,2 hPa 0,0 l/m 7,4 km/h (2 Bft) O 86 19,3 km/h (3 Bft)
24.05.2018 14:35 25,2 C 41 % 1021,2 hPa 0,0 l/m 10,3 km/h (2 Bft) SO 136 17,7 km/h (3 Bft)
24.05.2018 14:30 25,6 C 40 % 1021,2 hPa 0,0 l/m 9,3 km/h (2 Bft) SO 143 19,3 km/h (3 Bft)
24.05.2018 14:25 25,8 C 40 % 1021,4 hPa 0,0 l/m 6,6 km/h (2 Bft) O-SO 103 16,1 km/h (3 Bft)
24.05.2018 14:20 24,9 C 43 % 1021,4 hPa 0,0 l/m 11,3 km/h (2 Bft) SO 134 19,3 km/h (3 Bft)
_ Min-Zeit 05:55 15:20 19:05 - 00:00 - - 00:00
Minimum _ 11,1 C 33 % 1019,1 hPa - 0,0 km/h (0 Bft) - - 0,0 km/h (0 Bft)
_ Max-Zeit 16:00 06:00 02:40 00:00 13:35 - - 15:35
Maximum _ 26,4 C 80 % 1023,3 hPa 0,0 l/m 13,6 km/h
SO (3 Bft)
- - 25,7 km/h
O (4 Bft)
Durchschnitt _ 19,2 C 57 % 1022,0 hPa #0,0 l/m 4,2 km/h (1 Bft) O-SO - 10,2 km/h (2 Bft)

nach oben

Copyright 2006 - 2018 fr den gesamten Inhalt der Webseite